Time;durP1;ratioP1;P1;durP2;ratioP2;P2;SDS_P1;SDS_P2;PMS_P1;PMS_P2;Temp;Humidity;BMP_temperature;BMP_pressure;BME280_temperature;BME280_humidity;BME280_pressure;Samples;Min_cycle;Max_cycle;Signal;HPM_P1;HPM_P2
2023/06/02 04:28:16;;;;;;;17.55;8.20;;;;;;;10.77;77.42;96485.66;2094735;27;20557;-53
2023/06/02 04:29:18;;;;;;;15.93;8.05;;;;;;;10.97;77.84;96523.03;2091887;28;20207;-54
2023/06/02 08:40:06;;;;;;;16.95;7.47;;;;;;;20.06;57.48;96593.69;2085235;28;20547;-56
2023/06/02 08:42:22;;;;;;;14.45;8.20;;;;;;;19.19;57.67;96578.69;2090927;27;20551;-58
2023/06/02 08:44:38;;;;;;;10.73;6.80;;;;;;;20.18;57.18;96592.66;2082476;28;21071;-58
2023/06/02 08:46:53;;;;;;;10.32;7.03;;;;;;;19.97;57.23;96590.00;2093322;27;21071;-57
2023/06/02 08:49:15;;;;;;;16.42;7.78;;;;;;;20.34;56.30;96592.19;2083817;28;20556;-56
2023/06/02 08:51:38;;;;;;;11.15;7.45;;;;;;;20.38;55.77;96592.78;2105128;27;20571;-56
2023/06/02 08:54:06;;;;;;;16.73;7.43;;;;;;;20.53;56.26;96593.25;2092039;27;20567;-56
2023/06/02 08:56:33;;;;;;;12.07;6.95;;;;;;;19.96;56.37;96583.03;2084412;28;20570;-57
2023/06/02 08:59:02;;;;;;;12.43;7.18;;;;;;;20.53;56.20;96593.25;2083263;28;20553;-56
2023/06/02 09:01:42;;;;;;;10.43;6.32;;;;;;;21.11;55.13;96591.84;2107954;27;20560;-57
2023/06/02 09:02:47;;;;;;;22.67;11.10;;;;;;;20.08;55.29;96581.16;2107031;28;20218;-56
2023/06/02 09:05:13;;;;;;;116.28;72.50;;;;;;;20.87;55.51;96593.88;2094686;27;20568;-57
2023/06/02 09:06:20;;;;;;;22.15;12.77;;;;;;;21.04;55.33;96589.72;2089352;28;20196;-56
2023/06/02 09:09:00;;;;;;;14.18;7.63;;;;;;;20.94;55.43;96593.31;2116945;27;20543;-56
2023/06/02 09:10:03;;;;;;;14.68;7.93;;;;;;;20.93;55.50;96592.50;2098500;28;20191;-57
2023/06/02 09:12:47;;;;;;;11.57;7.72;;;;;;;20.91;55.31;96585.63;2100477;27;20577;-56
2023/06/02 09:13:49;;;;;;;11.23;6.60;;;;;;;20.94;55.14;96596.81;2098218;28;20225;-56
2023/06/02 09:15:08;;;;;;;12.35;7.20;;;;;;;21.19;54.90;96592.00;2098706;28;20850;-56
2023/06/02 09:17:46;;;;;;;12.38;8.02;;;;;;;21.67;53.79;96606.38;2116290;27;20570;-57
2023/06/02 09:18:56;;;;;;;12.45;7.18;;;;;;;21.65;53.01;96587.91;2115364;27;20813;-57
2023/06/02 09:20:06;;;;;;;14.05;7.63;;;;;;;21.38;53.85;96599.16;2113298;27;20251;-58
2023/06/02 09:21:23;;;;;;;19.70;7.38;;;;;;;21.30;53.83;96588.41;2100751;28;20274;-58
2023/06/02 09:24:03;;;;;;;13.45;6.60;;;;;;;21.70;54.30;96595.47;2092019;27;20582;-57
2023/06/02 09:25:20;;;;;;;17.33;7.05;;;;;;;21.77;53.32;96598.41;2083476;28;20311;-56
2023/06/02 09:26:25;;;;;;;12.48;6.93;;;;;;;21.65;53.79;96600.38;2072737;28;20196;-56
2023/06/02 09:27:28;;;;;;;9.45;6.47;;;;;;;21.67;53.54;96591.28;2072856;28;20236;-56
2023/06/02 09:28:29;;;;;;;13.52;7.15;;;;;;;21.58;54.28;96593.94;2069901;28;20204;-56
2023/06/02 09:29:38;;;;;;;12.07;6.78;;;;;;;22.02;52.68;96597.00;2070893;28;20826;-56
2023/06/02 09:32:51;;;;;;;11.88;6.38;;;;;;;22.41;52.14;96604.09;2097330;27;20563;-58
2023/06/02 09:33:58;;;;;;;27.17;7.63;;;;;;;22.38;50.60;96594.59;2090009;28;20195;-57
2023/06/02 09:35:01;;;;;;;10.38;6.85;;;;;;;21.89;51.31;96602.59;2087604;28;20222;-57
2023/06/02 09:36:04;;;;;;;17.73;7.03;;;;;;;22.00;52.24;96601.59;2080920;28;20203;-57
2023/06/02 09:37:16;;;;;;;8.40;5.90;;;;;;;22.17;51.66;96602.72;2080150;28;20193;-57
2023/06/02 09:38:18;;;;;;;10.63;6.63;;;;;;;22.32;51.84;96592.47;2081995;28;20193;-58
2023/06/02 09:39:34;;;;;;;8.88;6.60;;;;;;;22.56;51.09;96600.00;2081291;28;20215;-57
2023/06/02 09:40:37;;;;;;;12.50;6.38;;;;;;;22.78;51.41;96592.66;2069895;28;20758;-58
2023/06/02 09:41:40;;;;;;;11.25;6.68;;;;;;;22.70;51.05;96598.69;2073417;28;20194;-57
2023/06/02 09:42:43;;;;;;;11.13;7.25;;;;;;;22.66;50.50;96599.97;2081681;28;20193;-58
2023/06/02 09:43:45;;;;;;;10.52;5.82;;;;;;;22.73;50.80;96586.91;2078031;28;20561;-57
2023/06/02 09:45:07;;;;;;;19.77;7.78;;;;;;;22.98;50.54;96591.59;2071941;28;20217;-57
2023/06/02 09:46:09;;;;;;;12.52;6.82;;;;;;;22.80;50.74;96593.34;2075207;28;20274;-59
2023/06/02 09:47:24;;;;;;;11.02;6.75;;;;;;;22.40;50.80;96591.78;2080709;28;20227;-57
2023/06/02 09:48:29;;;;;;;10.80;6.53;;;;;;;22.37;51.35;96582.25;2081627;28;20238;-58
2023/06/02 09:49:40;;;;;;;9.82;5.80;;;;;;;22.39;51.30;96596.25;2081286;28;20806;-58
2023/06/02 09:50:41;;;;;;;11.00;7.10;;;;;;;22.63;50.88;96592.28;2077267;28;20228;-58
2023/06/02 09:51:43;;;;;;;8.90;7.10;;;;;;;22.28;51.19;96597.25;2079784;28;20224;-58
2023/06/02 09:55:20;;;;;;;14.02;6.38;;;;;;;22.56;50.49;96597.31;2091586;27;20557;-57
2023/06/02 09:56:22;;;;;;;10.85;6.55;;;;;;;22.56;50.45;96584.03;2091550;28;20720;-56
2023/06/02 09:57:24;;;;;;;13.32;6.90;;;;;;;22.89;49.82;96595.09;2089848;28;20283;-57
2023/06/02 09:58:26;;;;;;;12.10;6.20;;;;;;;22.96;49.91;96598.03;2090053;28;20200;-57
2023/06/02 09:59:29;;;;;;;40.80;23.02;;;;;;;23.25;49.68;96600.59;2086698;28;20200;-56
2023/06/02 10:00:32;;;;;;;12.80;8.50;;;;;;;22.85;49.19;96596.41;2086915;28;20224;-56
2023/06/02 10:01:34;;;;;;;14.60;7.60;;;;;;;22.66;49.48;96594.66;2090448;28;20678;-56
2023/06/02 10:02:36;;;;;;;25.67;17.75;;;;;;;23.12;49.05;96606.22;2091062;28;20200;-57
2023/06/02 10:03:44;;;;;;;25.80;17.15;;;;;;;23.09;49.97;96593.19;2088115;28;20282;-57
2023/06/02 10:04:46;;;;;;;16.33;7.63;;;;;;;22.87;48.97;96591.78;2086496;28;20239;-57
2023/06/02 10:06:01;;;;;;;40.30;19.45;;;;;;;23.22;49.24;96600.88;2085912;28;20258;-57
2023/06/02 10:07:13;;;;;;;24.70;10.02;;;;;;;22.63;51.15;96589.63;2089400;28;20203;-57
2023/06/02 10:08:27;;;;;;;17.65;9.10;;;;;;;23.00;50.55;96597.59;2094107;28;20196;-57
2023/06/02 10:09:58;;;;;;;41.63;18.23;;;;;;;23.44;48.63;96604.94;2093302;28;20339;-56
2023/06/02 10:11:19;;;;;;;49.22;26.25;;;;;;;23.52;48.73;96598.88;2090226;28;20216;-56
2023/06/02 10:12:52;;;;;;;15.55;9.35;;;;;;;23.87;47.53;96594.53;2090359;28;20724;-57
2023/06/02 10:14:08;;;;;;;132.90;65.03;;;;;;;23.71;46.55;96595.22;2089905;28;20249;-57
2023/06/02 10:15:41;;;;;;;13.30;8.15;;;;;;;23.26;47.86;96602.25;2089204;28;20223;-57
2023/06/02 10:17:05;;;;;;;11.85;5.93;;;;;;;23.40;48.88;96597.41;2090583;28;20196;-57
2023/06/02 10:18:12;;;;;;;12.70;5.82;;;;;;;23.80;48.50;96596.97;2090133;28;20282;-56
2023/06/02 10:19:41;;;;;;;8.27;5.45;;;;;;;23.26;49.93;96596.94;2091228;28;20193;-57
2023/06/02 10:21:00;;;;;;;10.70;4.97;;;;;;;23.55;49.11;96598.56;2089767;28;20224;-57
2023/06/02 10:22:23;;;;;;;10.45;6.25;;;;;;;22.58;49.89;96595.38;2090565;28;20369;-57
2023/06/02 10:23:47;;;;;;;13.23;6.43;;;;;;;23.55;48.46;96601.22;2090253;28;20314;-58
2023/06/02 10:25:13;;;;;;;10.98;6.43;;;;;;;23.60;48.03;96595.44;2085936;28;20211;-58
2023/06/02 10:26:32;;;;;;;10.63;5.82;;;;;;;24.16;47.57;96592.63;2087782;28;20207;-58
2023/06/02 10:27:36;;;;;;;11.25;5.95;;;;;;;24.37;47.35;96590.44;2090183;28;20229;-58
2023/06/02 10:28:38;;;;;;;12.57;5.95;;;;;;;24.79;47.71;96591.56;2091031;28;20200;-58
2023/06/02 10:29:40;;;;;;;12.85;5.93;;;;;;;24.54;46.67;96591.38;2087901;28;20766;-58
2023/06/02 10:30:41;;;;;;;10.23;6.88;;;;;;;24.03;47.79;96590.38;2085572;28;20227;-58
2023/06/02 10:31:44;;;;;;;12.20;5.85;;;;;;;24.10;48.85;96589.59;2086701;28;20200;-58
2023/06/02 10:32:48;;;;;;;9.75;6.20;;;;;;;23.86;48.83;96590.19;2091009;28;20208;-58
2023/06/02 10:33:50;;;;;;;7.88;5.55;;;;;;;24.23;48.41;96591.84;2089671;28;20210;-58
2023/06/02 10:34:53;;;;;;;8.02;5.78;;;;;;;23.47;48.64;96595.81;2088690;28;20220;-58
2023/06/02 10:36:00;;;;;;;9.25;6.13;;;;;;;24.00;48.27;96591.50;2086328;28;20249;-59
2023/06/02 10:37:04;;;;;;;11.25;6.03;;;;;;;23.91;48.67;96592.41;2088115;28;20705;-58
2023/06/02 10:38:28;;;;;;;9.45;5.85;;;;;;;23.47;49.66;96585.97;2088460;28;20193;-58
2023/06/02 10:39:39;;;;;;;12.23;6.47;;;;;;;23.99;47.66;96581.84;2089240;28;20203;-58
2023/06/02 10:40:52;;;;;;;8.15;5.45;;;;;;;23.84;47.70;96583.34;2087100;28;20228;-58
2023/06/02 10:42:11;;;;;;;10.93;5.80;;;;;;;24.11;48.23;96588.59;2086299;28;20208;-57
2023/06/02 10:43:12;;;;;;;12.70;5.93;;;;;;;24.53;47.81;96589.72;2087168;28;20221;-57
2023/06/02 10:44:25;;;;;;;7.40;5.40;;;;;;;24.77;46.69;96578.38;2086418;28;20547;-58
2023/06/02 10:45:27;;;;;;;9.23;6.05;;;;;;;24.25;47.52;96583.69;2087003;28;20285;-58
2023/06/02 10:46:28;;;;;;;10.15;5.40;;;;;;;24.72;47.43;96585.19;2089272;28;20753;-58
2023/06/02 10:47:33;;;;;;;11.43;5.68;;;;;;;25.10;45.56;96588.34;2088074;28;20200;-58
2023/06/02 10:48:39;;;;;;;9.57;5.50;;;;;;;24.90;45.66;96572.59;2089502;28;20208;-58
2023/06/02 10:50:00;;;;;;;10.35;5.55;;;;;;;24.15;46.68;96580.28;2088508;28;20201;-58
2023/06/02 10:51:02;;;;;;;10.65;5.43;;;;;;;24.20;46.58;96584.19;2096888;28;20597;-58
2023/06/02 10:52:08;;;;;;;10.38;6.40;;;;;;;23.62;46.48;96586.31;2099504;28;20199;-57
2023/06/02 10:53:10;;;;;;;15.15;5.75;;;;;;;22.77;49.12;96578.50;2097615;28;20639;-57
2023/06/02 10:54:13;;;;;;;8.88;5.63;;;;;;;22.61;48.89;96578.28;2094375;28;20196;-57
2023/06/02 10:55:16;;;;;;;14.20;5.90;;;;;;;22.30;48.67;96579.31;2093417;28;20323;-57
2023/06/02 10:56:35;;;;;;;9.88;5.38;;;;;;;23.47;47.88;96578.00;2099943;28;20199;-57
2023/06/02 10:57:53;;;;;;;11.43;4.30;;;;;;;23.70;47.34;96574.88;2101418;28;20296;-57
2023/06/02 10:58:55;;;;;;;14.25;5.57;;;;;;;24.35;46.97;96568.41;2099833;28;20286;-57
2023/06/02 10:59:56;;;;;;;10.27;5.32;;;;;;;23.47;47.60;96571.84;2096893;28;20203;-57
2023/06/02 11:00:58;;;;;;;11.27;5.32;;;;;;;24.41;46.32;96573.13;2098306;28;20199;-57
2023/06/02 11:02:00;;;;;;;90.60;59.58;;;;;;;24.86;45.87;96579.25;2098120;28;20318;-57
2023/06/02 11:03:02;;;;;;;99.35;62.67;;;;;;;25.39;45.10;96563.91;2094286;28;20222;-57
2023/06/02 11:04:28;;;;;;;94.03;62.38;;;;;;;24.87;46.13;96574.75;2096691;28;20226;-57
2023/06/02 11:05:31;;;;;;;10.40;5.78;;;;;;;25.24;45.52;96576.22;2096166;28;20211;-57
2023/06/02 11:06:33;;;;;;;8.80;5.18;;;;;;;25.02;45.37;96566.97;2093261;28;20215;-57
2023/06/02 11:07:35;;;;;;;23.13;6.45;;;;;;;24.78;44.71;96573.88;2088718;28;20283;-57
2023/06/02 11:08:36;;;;;;;10.95;4.63;;;;;;;24.65;45.10;96578.81;2089240;28;20266;-56
2023/06/02 11:09:43;;;;;;;8.95;4.95;;;;;;;25.00;44.49;96572.47;2092181;28;20292;-57
2023/06/02 11:10:54;;;;;;;13.25;5.32;;;;;;;24.86;44.94;96576.59;2092288;28;20734;-56
2023/06/02 11:11:56;;;;;;;8.93;5.60;;;;;;;24.63;45.46;96573.59;2092788;28;20571;-57
2023/06/02 11:12:57;;;;;;;10.18;6.15;;;;;;;24.22;46.24;96571.50;2094207;28;20256;-57
2023/06/02 11:13:59;;;;;;;12.10;6.05;;;;;;;24.15;46.80;96570.47;2089898;28;20228;-57
2023/06/02 11:15:04;;;;;;;7.90;4.97;;;;;;;24.34;46.74;96576.59;2090526;28;20224;-57
2023/06/02 11:16:06;;;;;;;8.68;5.43;;;;;;;24.31;46.79;96572.41;2092806;28;20537;-57
2023/06/02 11:17:36;;;;;;;7.25;4.35;;;;;;;25.30;45.28;96577.41;2092089;28;20203;-58
2023/06/02 11:18:37;;;;;;;9.38;4.95;;;;;;;25.37;44.42;96573.97;2092611;28;20196;-58
2023/06/02 11:19:49;;;;;;;7.78;4.22;;;;;;;25.62;44.07;96584.69;2092357;28;20207;-57
2023/06/02 11:21:02;;;;;;;12.65;5.38;;;;;;;25.83;42.61;96576.19;2090978;28;20220;-57
2023/06/02 11:22:04;;;;;;;7.60;4.90;;;;;;;26.40;42.49;96575.34;2091521;28;20200;-58
2023/06/02 11:23:06;;;;;;;9.05;5.10;;;;;;;25.85;41.77;96574.19;2092098;28;20481;-58
2023/06/02 11:24:11;;;;;;;5.70;4.00;;;;;;;25.51;44.39;96577.81;2091001;28;20200;-57
2023/06/02 11:25:14;;;;;;;17.92;4.70;;;;;;;26.16;44.15;96578.06;2092038;28;20220;-58
2023/06/02 11:26:21;;;;;;;7.65;4.63;;;;;;;26.76;42.58;96576.00;2091881;28;20200;-58
2023/06/02 11:27:40;;;;;;;6.53;3.95;;;;;;;26.64;42.65;96580.81;2091288;28;20534;-58
2023/06/02 11:28:41;;;;;;;9.90;4.55;;;;;;;26.33;42.78;96574.34;2095403;28;20195;-58
2023/06/02 11:29:44;;;;;;;15.77;5.22;;;;;;;26.10;43.59;96581.41;2092559;28;20200;-58
2023/06/02 11:30:46;;;;;;;9.27;4.97;;;;;;;25.08;44.05;96574.34;2088693;28;20246;-57
2023/06/02 11:31:48;;;;;;;8.40;5.22;;;;;;;25.66;44.30;96570.00;2090085;28;20207;-58
2023/06/02 11:32:51;;;;;;;6.00;4.50;;;;;;;25.83;43.30;96572.69;2091514;28;20250;-57
2023/06/02 11:33:54;;;;;;;12.90;4.85;;;;;;;25.78;43.77;96567.84;2092314;28;20208;-58
2023/06/02 11:35:03;;;;;;;14.18;5.60;;;;;;;25.40;44.57;96570.13;2091240;28;20254;-57
2023/06/02 11:36:09;;;;;;;7.65;4.40;;;;;;;26.35;42.98;96558.97;2091524;28;20247;-58
2023/06/02 11:37:14;;;;;;;8.63;5.13;;;;;;;26.84;42.28;96567.91;2092704;28;20574;-58
2023/06/02 11:38:18;;;;;;;13.25;4.78;;;;;;;26.82;41.67;96567.28;2091288;28;20191;-57
2023/06/02 11:39:20;;;;;;;8.90;5.15;;;;;;;26.53;41.93;96572.16;2091341;28;20197;-57
2023/06/02 11:40:22;;;;;;;14.43;4.70;;;;;;;26.17;42.60;96558.31;2093059;28;20211;-57
2023/06/02 11:41:24;;;;;;;7.25;4.53;;;;;;;26.60;42.67;96571.47;2093255;28;20203;-58
2023/06/02 11:42:44;;;;;;;6.85;4.95;;;;;;;27.32;41.92;96573.22;2091888;28;20735;-58
2023/06/02 11:43:48;;;;;;;8.63;4.70;;;;;;;27.52;41.21;96573.66;2092295;28;20204;-58
2023/06/02 11:44:50;;;;;;;11.65;4.72;;;;;;;27.28;41.59;96561.19;2091076;28;20192;-57
2023/06/02 11:45:51;;;;;;;8.90;4.80;;;;;;;26.50;42.45;96574.31;2088584;28;20188;-57
2023/06/02 11:46:53;;;;;;;8.98;5.50;;;;;;;26.00;43.81;96569.00;2091418;28;20663;-57
2023/06/02 11:48:09;;;;;;;8.20;4.70;;;;;;;26.19;43.34;96556.31;2091068;28;20197;-57
2023/06/02 11:49:11;;;;;;;6.40;4.30;;;;;;;26.27;42.00;96560.81;2092212;28;20607;-56
2023/06/02 11:50:20;;;;;;;7.40;4.53;;;;;;;26.26;42.09;96560.00;2090166;28;20219;-59
2023/06/02 11:51:22;;;;;;;10.95;5.00;;;;;;;25.57;42.41;96558.47;2092860;28;20650;-57
2023/06/02 11:52:24;;;;;;;7.65;4.53;;;;;;;25.51;42.74;96553.78;2088531;28;20562;-57
2023/06/02 11:53:25;;;;;;;6.30;4.18;;;;;;;25.62;42.69;96560.63;2088919;28;20337;-57
2023/06/02 11:54:27;;;;;;;9.48;4.10;;;;;;;26.01;41.68;96553.81;2091896;28;20607;-57
2023/06/02 11:55:31;;;;;;;13.98;4.50;;;;;;;26.13;42.47;96557.84;2090658;28;20224;-57
2023/06/02 11:56:35;;;;;;;7.25;4.40;;;;;;;26.57;41.72;96548.56;2091345;28;20227;-57
2023/06/02 11:57:36;;;;;;;6.55;4.28;;;;;;;25.90;42.87;96554.97;2090934;28;20196;-57
2023/06/02 11:58:42;;;;;;;12.07;4.47;;;;;;;26.13;42.92;96557.84;2087950;28;20342;-57
2023/06/02 11:59:44;;;;;;;8.70;4.32;;;;;;;26.30;43.05;96545.28;2090478;28;20204;-57
2023/06/02 12:00:45;;;;;;;9.85;4.10;;;;;;;26.80;41.63;96554.03;2090358;28;20306;-57
2023/06/02 12:01:48;;;;;;;9.57;4.68;;;;;;;26.95;41.42;96551.47;2089626;28;20298;-57
2023/06/02 12:02:53;;;;;;;9.73;5.30;;;;;;;27.39;40.67;96552.78;2091036;28;20200;-57
2023/06/02 12:03:59;;;;;;;7.20;4.22;;;;;;;27.14;40.16;96539.47;2090975;28;20207;-56
2023/06/02 12:05:01;;;;;;;7.20;4.45;;;;;;;27.05;40.35;96556.63;2093802;28;20217;-57
2023/06/02 12:06:14;;;;;;;10.50;4.63;;;;;;;25.78;40.13;96550.97;2092219;28;20220;-57
2023/06/02 12:07:15;;;;;;;11.65;4.47;;;;;;;25.95;41.20;96533.06;2093423;28;20249;-57
2023/06/02 12:08:22;;;;;;;6.95;4.50;;;;;;;25.58;41.95;96548.59;2088869;28;20196;-57
2023/06/02 12:09:29;;;;;;;8.73;4.70;;;;;;;25.95;41.63;96549.94;2091393;28;20208;-57
2023/06/02 12:10:31;;;;;;;6.55;4.20;;;;;;;25.69;43.70;96547.44;2089584;28;20223;-56
2023/06/02 12:11:33;;;;;;;10.02;4.70;;;;;;;25.96;42.97;96542.78;2091835;28;20257;-57
2023/06/02 12:12:35;;;;;;;7.97;4.93;;;;;;;26.67;42.13;96546.50;2091334;28;20252;-57
2023/06/02 12:13:36;;;;;;;7.22;4.22;;;;;;;27.09;41.49;96552.56;2092473;28;20199;-57
2023/06/02 12:14:38;;;;;;;9.85;5.00;;;;;;;26.57;42.37;96551.22;2088257;28;20250;-57
2023/06/02 12:15:40;;;;;;;12.43;4.50;;;;;;;27.47;41.43;96546.53;2090937;28;20228;-57
2023/06/02 12:16:43;;;;;;;9.25;4.57;;;;;;;27.53;39.94;96543.16;2091393;28;20192;-57
2023/06/02 12:17:45;;;;;;;6.43;4.50;;;;;;;27.84;40.35;96545.75;2087724;28;20666;-57
2023/06/02 12:18:48;;;;;;;9.88;4.18;;;;;;;27.27;40.20;96538.91;2087791;28;20674;-57
2023/06/02 12:19:57;;;;;;;8.85;5.00;;;;;;;26.85;40.99;96535.59;2091746;28;20206;-57
2023/06/02 12:20:59;;;;;;;12.50;3.95;;;;;;;27.79;39.74;96542.78;2092142;28;20235;-57
2023/06/02 12:22:16;;;;;;;11.98;5.20;;;;;;;27.18;39.92;96537.28;2091525;28;20204;-57
2023/06/02 12:23:17;;;;;;;7.95;4.30;;;;;;;27.18;40.84;96546.16;2091086;28;20200;-57
2023/06/02 12:24:38;;;;;;;8.85;4.45;;;;;;;27.47;39.71;96536.66;2088118;28;20201;-57
2023/06/02 12:25:40;;;;;;;7.80;4.35;;;;;;;27.98;39.15;96541.44;2089404;28;20246;-57
2023/06/02 12:26:44;;;;;;;6.63;4.47;;;;;;;28.34;38.42;96546.19;2087336;28;20192;-57
2023/06/02 12:27:46;;;;;;;9.10;4.35;;;;;;;27.95;36.98;96552.56;2090827;28;20212;-57
2023/06/02 12:28:50;;;;;;;7.47;4.28;;;;;;;27.06;39.94;96544.91;2089639;28;20199;-57
2023/06/02 12:29:52;;;;;;;13.68;4.72;;;;;;;27.62;39.26;96550.13;2092307;28;20279;-58
2023/06/02 12:30:53;;;;;;;7.80;4.75;;;;;;;27.22;40.39;96552.00;2088217;28;20280;-57
2023/06/02 12:31:56;;;;;;;25.02;19.77;;;;;;;27.59;40.04;96546.97;2088490;28;20207;-57
2023/06/02 12:33:13;;;;;;;38.70;22.73;;;;;;;28.03;39.76;96551.69;2088343;28;20192;-57
2023/06/02 12:34:16;;;;;;;75.35;55.25;;;;;;;27.65;40.05;96541.72;2094234;28;20199;-57
2023/06/02 12:35:18;;;;;;;25.88;18.38;;;;;;;28.11;40.05;96542.72;2095198;28;20310;-57
2023/06/02 12:36:19;;;;;;;10.48;4.55;;;;;;;28.12;38.68;96539.03;2092724;28;20250;-57
2023/06/02 12:37:21;;;;;;;6.38;4.28;;;;;;;27.86;39.17;96546.41;2092883;28;20589;-57
2023/06/02 12:38:23;;;;;;;8.32;4.38;;;;;;;28.31;38.11;96545.72;2091527;28;20196;-57
2023/06/02 12:39:24;;;;;;;8.30;4.33;;;;;;;28.87;37.42;96542.63;2088203;28;20200;-57
2023/06/02 12:40:26;;;;;;;6.27;4.10;;;;;;;27.86;38.90;96545.59;2089588;28;20495;-57
2023/06/02 12:41:27;;;;;;;7.77;4.33;;;;;;;28.38;37.79;96535.94;2091352;28;20517;-57
2023/06/02 12:42:29;;;;;;;4.55;3.65;;;;;;;28.09;38.33;96537.53;2092196;28;20433;-58
2023/06/02 12:43:30;;;;;;;8.43;4.47;;;;;;;28.08;38.89;96541.25;2091490;28;20238;-57
2023/06/02 12:44:32;;;;;;;10.05;3.92;;;;;;;27.15;40.55;96543.84;2088047;28;20223;-57
2023/06/02 12:45:33;;;;;;;38.75;26.27;;;;;;;27.88;38.92;96545.41;2087792;28;20867;-57
2023/06/02 12:46:35;;;;;;;26.90;17.70;;;;;;;28.31;38.73;96535.81;2090802;28;20214;-57
2023/06/02 12:47:36;;;;;;;13.13;6.43;;;;;;;27.60;39.58;96528.00;2083463;28;20631;-58
2023/06/02 12:48:39;;;;;;;10.30;5.27;;;;;;;28.40;38.97;96541.13;2084442;28;20520;-57
2023/06/02 12:49:41;;;;;;;5.68;3.80;;;;;;;28.79;38.57;96538.19;2087877;28;20440;-57
2023/06/02 12:50:43;;;;;;;5.57;3.70;;;;;;;28.93;38.34;96541.06;2089334;28;20234;-57
2023/06/02 12:51:44;;;;;;;6.87;3.90;;;;;;;28.21;39.00;96539.78;2090111;28;20430;-57
2023/06/02 12:52:46;;;;;;;8.97;4.10;;;;;;;28.57;38.84;96541.75;2092134;28;20456;-58
2023/06/02 12:53:48;;;;;;;6.13;4.07;;;;;;;28.29;38.69;96543.22;2093594;28;20425;-57
2023/06/02 12:54:49;;;;;;;4.63;3.80;;;;;;;28.82;38.46;96539.66;2090623;28;20422;-57
2023/06/02 12:55:51;;;;;;;8.23;3.70;;;;;;;28.82;37.84;96537.81;2087929;28;20623;-57
2023/06/02 12:56:53;;;;;;;8.00;4.10;;;;;;;28.75;38.42;96538.75;2088691;28;20457;-57
2023/06/02 12:57:55;;;;;;;9.13;3.77;;;;;;;28.59;37.68;96535.19;2091572;28;20805;-58
2023/06/02 12:58:56;;;;;;;10.07;4.83;;;;;;;28.49;38.25;96537.31;2091496;28;20428;-57
2023/06/02 13:00:00;;;;;;;8.57;4.35;;;;;;;27.93;38.97;96538.47;2092338;28;20964;-57
2023/06/02 13:01:02;;;;;;;6.70;4.70;;;;;;;28.63;38.16;96541.03;2082507;28;20283;-57
2023/06/02 13:02:04;;;;;;;7.43;3.73;;;;;;;29.16;38.14;96530.97;2091146;28;20433;-57
2023/06/02 13:03:07;;;;;;;5.60;4.17;;;;;;;29.36;37.99;96541.19;2090147;28;20437;-57
2023/06/02 13:04:08;;;;;;;6.50;3.93;;;;;;;29.04;37.35;96510.16;2090829;28;20422;-58
2023/06/02 13:05:11;;;;;;;7.13;3.97;;;;;;;28.83;37.79;96530.59;2087372;28;20529;-57
2023/06/02 13:06:12;;;;;;;6.67;3.87;;;;;;;28.88;39.10;96543.47;2091080;28;20512;-58
2023/06/02 13:07:14;;;;;;;8.87;4.40;;;;;;;28.95;38.46;96539.84;2089776;28;20482;-58
2023/06/02 13:08:16;;;;;;;5.20;3.57;;;;;;;29.03;38.65;96546.97;2087960;28;20429;-58
2023/06/02 13:09:18;;;;;;;8.23;4.20;;;;;;;28.72;38.07;96515.78;2089236;28;20920;-57
2023/06/02 13:10:20;;;;;;;6.30;4.60;;;;;;;29.12;38.21;96545.00;2091645;28;20456;-58
2023/06/02 13:11:22;;;;;;;6.73;4.17;;;;;;;29.29;37.53;96542.97;2094837;28;20432;-58
2023/06/02 13:12:24;;;;;;;7.23;4.20;;;;;;;29.08;37.14;96541.88;2092962;28;20503;-58
2023/06/02 13:13:26;;;;;;;8.70;4.30;;;;;;;28.97;37.96;96536.97;2091662;28;20454;-58
2023/06/02 13:14:27;;;;;;;8.30;4.37;;;;;;;28.84;37.54;96535.75;2090391;28;20800;-58
2023/06/02 13:15:29;;;;;;;11.33;4.10;;;;;;;28.65;37.59;96528.25;2087233;28;20458;-58
2023/06/02 13:16:31;;;;;;;8.77;4.37;;;;;;;29.21;37.22;96540.38;2090237;28;20498;-57
2023/06/02 13:17:33;;;;;;;5.23;3.50;;;;;;;28.95;37.91;96537.16;2089759;28;20425;-58
2023/06/02 13:18:35;;;;;;;9.73;3.90;;;;;;;29.01;37.82;96530.19;2093247;28;20425;-57
2023/06/02 13:19:36;;;;;;;12.80;4.17;;;;;;;28.99;37.70;96533.06;2092783;28;20452;-57
2023/06/02 13:20:39;;;;;;;6.57;3.97;;;;;;;28.93;38.00;96544.56;2090777;28;20480;-58
2023/06/02 13:21:41;;;;;;;4.90;3.27;;;;;;;29.15;37.59;96544.63;2089614;28;20433;-57
2023/06/02 13:22:42;;;;;;;5.23;3.93;;;;;;;29.38;37.93;96538.31;2082597;28;20427;-57
2023/06/02 13:23:54;;;;;;;7.53;3.63;;;;;;;28.74;38.50;96534.41;2089938;28;20428;-57
2023/06/02 13:24:56;;;;;;;9.80;3.67;;;;;;;28.79;38.82;96527.44;2087075;28;20480;-57
2023/06/02 13:25:58;;;;;;;9.20;4.17;;;;;;;28.81;38.65;96538.84;2088842;28;20463;-57
2023/06/02 13:27:00;;;;;;;8.13;4.07;;;;;;;28.50;38.93;96533.63;2092111;28;20423;-58
2023/06/02 13:28:02;;;;;;;8.43;3.47;;;;;;;28.17;39.07;96525.91;2091610;28;20426;-58
2023/06/02 13:29:03;;;;;;;7.23;4.50;;;;;;;28.41;39.40;96532.03;2091565;28;20502;-57
2023/06/02 13:30:06;;;;;;;5.07;4.13;;;;;;;28.63;38.88;96528.44;2090348;28;20449;-57
2023/06/02 13:31:07;;;;;;;7.78;4.00;;;;;;;29.21;38.63;96532.31;2091472;28;20459;-57
2023/06/02 13:32:09;;;;;;;6.17;3.90;;;;;;;28.93;37.98;96536.50;2095316;28;20261;-57
2023/06/02 13:33:10;;;;;;;5.53;4.20;;;;;;;27.46;39.38;96536.81;2095293;28;20431;-57
2023/06/02 13:34:12;;;;;;;9.40;4.30;;;;;;;28.40;38.76;96533.88;2091545;28;20203;-57
2023/06/02 13:35:14;;;;;;;12.43;4.77;;;;;;;28.67;37.80;96529.78;2091275;28;20464;-57
2023/06/02 13:36:15;;;;;;;11.13;4.17;;;;;;;28.82;38.25;96529.78;2090233;28;20425;-57
2023/06/02 13:37:17;;;;;;;7.72;3.65;;;;;;;28.85;38.08;96531.25;2087641;28;20481;-57
2023/06/02 13:38:18;;;;;;;7.90;3.87;;;;;;;27.83;38.39;96530.69;2091595;28;20888;-58
2023/06/02 13:39:20;;;;;;;7.10;4.10;;;;;;;27.64;39.24;96504.34;2091247;28;20432;-60
2023/06/02 13:40:22;;;;;;;9.57;3.90;;;;;;;28.32;38.49;96523.25;2086966;28;20518;-57
2023/06/02 13:41:23;;;;;;;14.03;4.00;;;;;;;28.82;38.48;96529.78;2090274;28;20517;-57
2023/06/02 13:42:25;;;;;;;11.30;3.73;;;;;;;28.95;37.31;96523.72;2091643;28;20421;-57
2023/06/02 13:43:26;;;;;;;6.50;3.80;;;;;;;29.20;37.24;96501.88;2087692;28;20498;-58
2023/06/02 13:44:28;;;;;;;12.03;3.80;;;;;;;29.23;37.51;96525.72;2087798;28;20517;-57
2023/06/02 13:45:29;;;;;;;6.40;3.60;;;;;;;28.70;37.77;96520.50;2088956;28;21305;-58
2023/06/02 13:46:31;;;;;;;6.57;4.10;;;;;;;28.82;38.06;96515.47;2089209;28;20482;-57
2023/06/02 13:47:32;;;;;;;7.40;4.00;;;;;;;28.43;38.35;96512.06;2091449;28;20470;-57
2023/06/02 13:48:34;;;;;;;6.23;4.00;;;;;;;29.08;37.81;96517.66;2090895;28;20776;-57
2023/06/02 13:49:36;;;;;;;5.13;3.27;;;;;;;29.62;37.43;96523.66;2091529;28;20524;-57
2023/06/02 13:50:38;;;;;;;10.50;4.60;;;;;;;29.38;36.88;96517.63;2090697;28;20805;-57
2023/06/02 13:51:40;;;;;;;17.53;4.17;;;;;;;29.63;36.96;96515.38;2092281;28;20433;-57
2023/06/02 13:52:41;;;;;;;7.47;3.77;;;;;;;29.08;36.82;96517.66;2092210;28;20424;-57
2023/06/02 13:53:43;;;;;;;5.40;3.67;;;;;;;28.80;38.25;96513.00;2092951;28;20975;-57
2023/06/02 13:54:44;;;;;;;8.80;3.97;;;;;;;28.82;38.43;96513.66;2091583;28;21210;-58
2023/06/02 13:55:46;;;;;;;5.30;3.60;;;;;;;28.93;38.60;96515.00;2090892;28;20459;-57
2023/06/02 13:56:48;;;;;;;6.73;3.73;;;;;;;29.65;37.39;96512.53;2090697;28;20426;-57
2023/06/02 13:57:50;;;;;;;6.50;4.03;;;;;;;29.65;37.37;96513.34;2092075;28;20944;-57
2023/06/02 13:58:51;;;;;;;5.87;3.93;;;;;;;28.82;38.68;96521.72;2091295;28;20486;-57
2023/06/02 13:59:53;;;;;;;5.83;3.83;;;;;;;28.86;38.11;96513.25;2086974;28;20566;-57
2023/06/02 14:00:54;;;;;;;10.63;4.37;;;;;;;28.98;37.37;96503.72;2088764;28;20815;-57
2023/06/02 14:01:57;;;;;;;9.63;4.00;;;;;;;29.03;37.46;96521.94;2092090;28;20431;-57
2023/06/02 14:02:59;;;;;;;5.00;3.57;;;;;;;29.34;36.90;96513.63;2092855;28;20437;-57
2023/06/02 14:04:00;;;;;;;7.30;4.07;;;;;;;28.56;37.82;96522.13;2087813;28;20457;-57
2023/06/02 14:05:02;;;;;;;6.60;3.40;;;;;;;28.84;37.64;96516.13;2089451;28;20432;-58
2023/06/02 14:06:04;;;;;;;6.03;3.83;;;;;;;28.28;38.49;96516.59;2087810;28;20508;-57
2023/06/02 14:07:06;;;;;;;9.97;3.73;;;;;;;28.54;38.34;96518.78;2088430;28;20429;-57